createdAt,value
2023-02-09T06:47:58.358Z,131.90
2023-02-09T06:53:00.962Z,174.00
2023-02-09T06:58:03.274Z,213.50
2023-02-09T07:03:05.033Z,225.50
2023-02-09T07:08:06.835Z,152.80
2023-02-09T07:18:15.913Z,116.30
2023-02-09T07:28:22.968Z,107.40
2023-02-09T07:33:24.733Z,116.80
2023-02-09T07:43:28.412Z,109.80
2023-02-09T07:48:30.649Z,102.10
2023-02-09T07:53:33.306Z,89.90
2023-02-09T07:58:35.184Z,97.90
2023-02-09T08:03:37.824Z,97.60
2023-02-09T08:08:39.473Z,98.00
2023-02-09T08:18:50.378Z,74.60
2023-02-09T08:23:55.592Z,72.40
2023-02-09T08:28:58.009Z,66.00
2023-02-09T08:33:59.917Z,56.20
2023-02-09T08:39:03.194Z,54.50
2023-02-09T08:44:05.049Z,48.80
2023-02-09T08:49:06.727Z,55.90
2023-02-09T08:59:10.481Z,53.80
2023-02-09T09:04:12.378Z,56.30
2023-02-09T09:09:14.645Z,50.60
2023-02-09T09:14:16.326Z,49.00
2023-02-09T09:24:19.950Z,48.10
2023-02-09T09:29:21.855Z,45.20
2023-02-09T09:34:23.541Z,56.10
2023-02-09T09:44:40.927Z,55.30
2023-02-09T09:49:43.153Z,44.80
2023-02-09T09:54:45.743Z,43.20
2023-02-09T09:59:47.708Z,51.50
2023-02-09T10:04:50.135Z,41.80
2023-02-09T10:10:02.490Z,38.00
2023-02-09T10:15:29.098Z,43.30
2023-02-09T10:20:52.516Z,43.20
2023-02-09T10:26:00.825Z,39.30
2023-02-09T10:31:10.251Z,31.50
2023-02-09T10:36:36.578Z,31.30
2023-02-09T10:41:41.948Z,26.60
2023-02-09T10:46:44.132Z,26.80
2023-02-09T10:51:45.798Z,31.90
2023-02-09T10:56:49.321Z,29.80
2023-02-09T11:02:02.191Z,45.90
2023-02-09T11:07:10.197Z,38.50
2023-02-09T11:12:13.080Z,26.50
2023-02-09T11:17:40.064Z,38.90
2023-02-09T11:23:14.896Z,25.20
2023-02-09T11:28:47.983Z,27.70
2023-02-09T11:33:57.555Z,25.00
2023-02-09T11:39:03.078Z,33.90
2023-02-09T11:44:07.806Z,25.50
2023-02-09T11:49:17.951Z,23.20
2023-02-09T11:54:27.249Z,20.00
2023-02-09T11:59:39.082Z,16.50
2023-02-09T12:04:54.568Z,20.20
2023-02-09T12:10:34.180Z,16.90
2023-02-09T12:15:44.000Z,18.10
2023-02-09T12:21:00.766Z,19.60
2023-02-09T12:26:36.214Z,17.40
2023-02-09T12:32:03.250Z,18.10
2023-02-09T12:37:14.365Z,15.10
2023-02-09T12:42:16.033Z,14.40
2023-02-09T12:47:45.612Z,19.20
2023-02-09T12:53:21.886Z,19.10
2023-02-09T12:58:35.197Z,12.10
2023-02-09T13:03:56.077Z,12.10
2023-02-09T13:09:02.333Z,12.90
2023-02-09T13:14:07.658Z,17.90
2023-02-09T13:19:47.030Z,15.80
2023-02-09T13:25:00.823Z,16.90
2023-02-09T13:30:02.528Z,15.40
2023-02-09T13:35:25.832Z,14.70
2023-02-09T13:40:35.048Z,23.20
2023-02-09T13:45:51.206Z,14.80
2023-02-09T13:50:55.247Z,12.80
2023-02-09T13:56:00.401Z,15.00
2023-02-09T14:01:35.906Z,13.50
2023-02-09T14:07:01.668Z,11.40
2023-02-09T14:12:09.723Z,14.30
2023-02-09T14:17:25.244Z,12.80
2023-02-09T14:22:30.887Z,12.90
2023-02-09T14:27:34.820Z,12.70
2023-02-09T14:32:40.464Z,12.90
2023-02-09T14:37:43.751Z,13.10
2023-02-09T14:43:03.698Z,13.40
2023-02-09T14:48:20.778Z,17.20
2023-02-09T14:53:24.768Z,18.50
2023-02-09T14:58:31.916Z,35.30
2023-02-09T15:03:33.698Z,31.80
2023-02-09T15:08:38.029Z,24.50
2023-02-09T15:13:40.184Z,36.70
2023-02-09T15:18:42.199Z,99.10
2023-02-09T15:23:44.044Z,48.10
2023-02-09T15:28:46.170Z,79.30
2023-02-09T15:33:47.946Z,25.10
2023-02-09T15:38:49.677Z,28.30
2023-02-09T15:44:10.348Z,28.80
2023-02-09T15:49:12.273Z,34.10
2023-02-09T15:54:19.908Z,37.00
2023-02-09T15:59:23.502Z,52.90
2023-02-09T16:04:25.331Z,53.40
2023-02-09T16:09:29.147Z,64.10
2023-02-09T16:14:31.821Z,52.80
2023-02-09T16:19:33.924Z,49.70
2023-02-09T16:24:45.221Z,52.70
2023-02-09T16:29:47.061Z,48.20
2023-02-09T16:34:49.769Z,51.50
2023-02-09T16:39:51.556Z,58.40
2023-02-09T16:44:53.560Z,74.00
2023-02-09T16:50:02.720Z,56.50
2023-02-09T16:55:07.101Z,45.80
2023-02-09T17:00:09.914Z,37.70
2023-02-09T17:05:21.725Z,48.10
2023-02-09T17:10:28.429Z,40.40
2023-02-09T17:15:36.420Z,48.00
2023-02-09T17:20:43.261Z,42.00
2023-02-09T17:25:45.878Z,81.10
2023-02-09T17:30:49.703Z,89.50
2023-02-09T17:36:23.672Z,111.00
2023-02-09T17:41:17.862Z,94.60
2023-02-09T17:46:20.300Z,70.50
2023-02-09T17:51:30.597Z,63.70
2023-02-09T17:56:32.717Z,84.40
2023-02-09T18:01:41.016Z,92.90
2023-02-09T18:06:43.222Z,71.30
2023-02-09T18:11:44.947Z,78.60
2023-02-09T18:16:47.862Z,66.10
2023-02-09T18:21:54.053Z,55.30
2023-02-09T18:26:56.031Z,70.00
2023-02-09T18:32:03.245Z,69.40
2023-02-09T18:37:05.235Z,81.50
2023-02-09T18:42:11.451Z,84.90
2023-02-09T18:47:13.388Z,61.10
2023-02-09T18:52:17.279Z,71.40
2023-02-09T18:57:19.046Z,59.10
2023-02-09T19:12:26.212Z,56.60
2023-02-09T19:17:29.853Z,57.10
2023-02-09T19:22:32.113Z,50.50
2023-02-09T19:27:34.052Z,50.10
2023-02-09T19:32:38.183Z,52.90
2023-02-09T19:37:42.207Z,82.90
2023-02-09T19:42:44.413Z,60.00
2023-02-09T19:47:46.238Z,93.50
2023-02-09T19:52:49.108Z,56.50
2023-02-09T19:57:50.886Z,45.90
2023-02-09T20:02:52.609Z,37.20
2023-02-09T20:07:54.474Z,38.10
2023-02-09T20:12:56.375Z,31.70
2023-02-09T20:17:58.454Z,31.80
2023-02-09T20:23:00.331Z,40.90
2023-02-09T20:28:02.352Z,59.40
2023-02-09T20:33:04.106Z,47.80
2023-02-09T20:43:26.449Z,55.20
2023-02-09T20:48:28.373Z,37.00
2023-02-09T20:53:30.362Z,31.70
2023-02-09T20:58:32.029Z,54.40
2023-02-09T21:08:38.210Z,56.40
2023-02-09T21:13:41.242Z,73.50
2023-02-09T21:18:44.376Z,63.30
2023-02-09T21:23:46.656Z,40.80
2023-02-09T21:28:48.681Z,45.30
2023-02-09T21:33:50.412Z,41.10
2023-02-09T21:38:52.292Z,45.70
2023-02-09T21:48:56.254Z,40.30
2023-02-09T21:53:58.018Z,44.20
2023-02-09T21:58:59.925Z,78.00
2023-02-09T22:04:02.221Z,49.10
2023-02-09T22:09:06.256Z,63.10
2023-02-09T22:14:11.901Z,95.40
2023-02-09T22:19:13.843Z,65.40
2023-02-09T22:24:16.767Z,40.70
2023-02-09T22:29:18.749Z,50.50
2023-02-09T22:34:20.459Z,39.00
2023-02-09T22:39:22.501Z,31.90
2023-02-09T22:44:26.618Z,43.90
2023-02-09T22:49:28.598Z,30.20
2023-02-09T22:54:30.522Z,43.60
2023-02-09T22:59:32.313Z,36.10
2023-02-09T23:14:37.482Z,37.30
2023-02-09T23:24:42.105Z,49.90
2023-02-09T23:29:43.913Z,50.80
2023-02-09T23:34:45.570Z,38.50
2023-02-09T23:39:47.346Z,37.70
2023-02-09T23:44:49.072Z,54.20
2023-02-09T23:49:50.827Z,60.90
2023-02-09T23:54:52.614Z,50.50
2023-02-09T23:59:54.285Z,60.00
